RJCA(METAR)
02/18 15:00
METAR RJCA 180600Z 27007KT 9999 FEW030 BKN050 M00/M10 Q1018 RMK
1CU030 5CU050 A3007=
戻る
トップページへ戻る
IMOC Co,.Ltd.